sensor_id;sensor_type;location;lat;lon;timestamp;pressure;altitude;pressure_sealevel;temperature;humidity
70198;BME280;57582;-34.876;138.628;2023-03-26T00:02:07;100945;;;16.70;72.26
70198;BME280;57582;-34.876;138.628;2023-03-26T00:05:08;100948;;;16.68;71.61
70198;BME280;57582;-34.876;138.628;2023-03-26T00:08:07;100958;;;16.64;72.32
70198;BME280;57582;-34.876;138.628;2023-03-26T00:11:08;100938;;;16.55;72.49
70198;BME280;57582;-34.876;138.628;2023-03-26T00:14:08;100951;;;16.61;71.89
70198;BME280;57582;-34.876;138.628;2023-03-26T00:17:08;100939;;;16.59;71.54
70198;BME280;57582;-34.876;138.628;2023-03-26T00:20:07;100930;;;16.67;71.17
70198;BME280;57582;-34.876;138.628;2023-03-26T00:23:07;100914;;;16.52;71.06
70198;BME280;57582;-34.876;138.628;2023-03-26T00:26:07;100917;;;16.49;70.75
70198;BME280;57582;-34.876;138.628;2023-03-26T00:29:08;100935;;;16.68;70.07
70198;BME280;57582;-34.876;138.628;2023-03-26T00:32:07;100943;;;16.83;68.72
70198;BME280;57582;-34.876;138.628;2023-03-26T00:35:07;100950;;;16.87;68.29
70198;BME280;57582;-34.876;138.628;2023-03-26T00:38:07;100955;;;17.06;69.11
70198;BME280;57582;-34.876;138.628;2023-03-26T00:41:09;100953;;;17.21;67.17
70198;BME280;57582;-34.876;138.628;2023-03-26T00:44:07;100955;;;17.33;67.03
70198;BME280;57582;-34.876;138.628;2023-03-26T00:47:07;100942;;;17.35;66.65
70198;BME280;57582;-34.876;138.628;2023-03-26T00:50:07;100926;;;17.17;66.25
70198;BME280;57582;-34.876;138.628;2023-03-26T00:53:08;100921;;;17.27;66.95
70198;BME280;57582;-34.876;138.628;2023-03-26T00:56:08;100904;;;17.13;67.13
70198;BME280;57582;-34.876;138.628;2023-03-26T00:59:07;100902;;;17.10;66.67
70198;BME280;57582;-34.876;138.628;2023-03-26T01:02:09;100895;;;17.14;65.66
70198;BME280;57582;-34.876;138.628;2023-03-26T01:05:37;100888;;;17.38;64.91
70198;BME280;57582;-34.876;138.628;2023-03-26T01:08:17;100874;;;17.43;64.48
70198;BME280;57582;-34.876;138.628;2023-03-26T01:11:10;100881;;;17.63;63.79
70198;BME280;57582;-34.876;138.628;2023-03-26T01:14:09;100877;;;17.75;62.22
70198;BME280;57582;-34.876;138.628;2023-03-26T01:17:08;100874;;;17.83;61.88
70198;BME280;57582;-34.876;138.628;2023-03-26T01:20:10;100865;;;18.08;62.05
70198;BME280;57582;-34.876;138.628;2023-03-26T01:23:07;100863;;;18.23;60.83
70198;BME280;57582;-34.876;138.628;2023-03-26T01:26:11;100850;;;18.50;60.01
70198;BME280;57582;-34.876;138.628;2023-03-26T01:29:10;100807;;;18.33;59.09
70198;BME280;57582;-34.876;138.628;2023-03-26T01:35:11;100795;;;18.51;59.06
70198;BME280;57582;-34.876;138.628;2023-03-26T01:41:09;100798;;;18.64;57.24
70198;BME280;57582;-34.876;138.628;2023-03-26T01:44:09;100811;;;18.85;57.04
70198;BME280;57582;-34.876;138.628;2023-03-26T01:47:07;100807;;;19.02;54.64
70198;BME280;57582;-34.876;138.628;2023-03-26T01:50:08;100797;;;19.01;55.03
70198;BME280;57582;-34.876;138.628;2023-03-26T01:53:08;100795;;;19.03;54.13
70198;BME280;57582;-34.876;138.628;2023-03-26T01:59:15;100795;;;19.28;55.14
70198;BME280;57582;-34.876;138.628;2023-03-26T02:02:16;100776;;;19.14;53.21
70198;BME280;57582;-34.876;138.628;2023-03-26T02:05:11;100770;;;18.93;53.33
70198;BME280;57582;-34.876;138.628;2023-03-26T02:08:09;100761;;;19.02;54.11
70198;BME280;57582;-34.876;138.628;2023-03-26T02:11:08;100744;;;19.16;54.83
70198;BME280;57582;-34.876;138.628;2023-03-26T02:14:07;100768;;;19.28;53.91
70198;BME280;57582;-34.876;138.628;2023-03-26T02:17:08;100780;;;19.34;53.17
70198;BME280;57582;-34.876;138.628;2023-03-26T02:20:08;100774;;;19.55;52.28
70198;BME280;57582;-34.876;138.628;2023-03-26T02:23:07;100779;;;19.68;52.95
70198;BME280;57582;-34.876;138.628;2023-03-26T02:26:08;100769;;;19.63;53.12
70198;BME280;57582;-34.876;138.628;2023-03-26T02:29:08;100763;;;19.72;52.53
70198;BME280;57582;-34.876;138.628;2023-03-26T02:32:08;100761;;;19.87;53.98
70198;BME280;57582;-34.876;138.628;2023-03-26T02:35:08;100767;;;19.79;52.96
70198;BME280;57582;-34.876;138.628;2023-03-26T02:38:07;100752;;;19.88;54.15
70198;BME280;57582;-34.876;138.628;2023-03-26T02:41:08;100751;;;19.99;53.96
70198;BME280;57582;-34.876;138.628;2023-03-26T02:44:07;100756;;;20.25;54.13
70198;BME280;57582;-34.876;138.628;2023-03-26T02:47:07;100751;;;20.27;53.05
70198;BME280;57582;-34.876;138.628;2023-03-26T02:50:07;100741;;;20.39;53.13
70198;BME280;57582;-34.876;138.628;2023-03-26T02:53:08;100727;;;20.52;53.34
70198;BME280;57582;-34.876;138.628;2023-03-26T02:56:07;100707;;;20.41;52.36
70198;BME280;57582;-34.876;138.628;2023-03-26T02:59:07;100718;;;20.53;52.44
70198;BME280;57582;-34.876;138.628;2023-03-26T03:02:07;100732;;;20.50;53.00
70198;BME280;57582;-34.876;138.628;2023-03-26T03:05:09;100736;;;20.54;52.52
70198;BME280;57582;-34.876;138.628;2023-03-26T03:08:08;100714;;;20.64;52.54
70198;BME280;57582;-34.876;138.628;2023-03-26T03:11:09;100707;;;20.53;52.08
70198;BME280;57582;-34.876;138.628;2023-03-26T03:14:07;100696;;;20.58;51.63
70198;BME280;57582;-34.876;138.628;2023-03-26T03:17:08;100709;;;20.69;53.30
70198;BME280;57582;-34.876;138.628;2023-03-26T03:20:08;100710;;;20.63;53.45
70198;BME280;57582;-34.876;138.628;2023-03-26T03:23:07;100707;;;20.43;52.67
70198;BME280;57582;-34.876;138.628;2023-03-26T03:26:10;100704;;;20.28;53.37
70198;BME280;57582;-34.876;138.628;2023-03-26T03:29:08;100718;;;20.26;54.45
70198;BME280;57582;-34.876;138.628;2023-03-26T03:32:07;100734;;;20.43;53.57
70198;BME280;57582;-34.876;138.628;2023-03-26T03:35:07;100756;;;20.53;53.88
70198;BME280;57582;-34.876;138.628;2023-03-26T03:38:08;100687;;;20.56;54.78
70198;BME280;57582;-34.876;138.628;2023-03-26T03:41:08;100696;;;20.61;57.06
70198;BME280;57582;-34.876;138.628;2023-03-26T03:44:07;100666;;;20.28;58.60
70198;BME280;57582;-34.876;138.628;2023-03-26T03:47:07;100666;;;20.23;59.11
70198;BME280;57582;-34.876;138.628;2023-03-26T03:50:08;100641;;;19.96;59.84
70198;BME280;57582;-34.876;138.628;2023-03-26T03:53:08;100635;;;19.98;61.30
70198;BME280;57582;-34.876;138.628;2023-03-26T03:56:07;100626;;;19.51;63.84
70198;BME280;57582;-34.876;138.628;2023-03-26T03:59:07;100611;;;19.65;63.59
70198;BME280;57582;-34.876;138.628;2023-03-26T04:02:07;100610;;;19.80;63.27
70198;BME280;57582;-34.876;138.628;2023-03-26T04:05:08;100591;;;19.86;62.82
70198;BME280;57582;-34.876;138.628;2023-03-26T04:08:07;100581;;;20.08;63.68
70198;BME280;57582;-34.876;138.628;2023-03-26T04:11:07;100570;;;20.08;62.51
70198;BME280;57582;-34.876;138.628;2023-03-26T04:14:07;100567;;;20.18;62.34
70198;BME280;57582;-34.876;138.628;2023-03-26T04:17:08;100567;;;20.28;60.25
70198;BME280;57582;-34.876;138.628;2023-03-26T04:20:09;100568;;;20.05;60.51
70198;BME280;57582;-34.876;138.628;2023-03-26T04:23:07;100567;;;20.08;59.74
70198;BME280;57582;-34.876;138.628;2023-03-26T04:26:09;100558;;;20.21;58.58
70198;BME280;57582;-34.876;138.628;2023-03-26T04:29:09;100558;;;20.26;58.61
70198;BME280;57582;-34.876;138.628;2023-03-26T04:32:09;100573;;;20.03;59.40
70198;BME280;57582;-34.876;138.628;2023-03-26T04:35:10;100569;;;19.99;59.14
70198;BME280;57582;-34.876;138.628;2023-03-26T04:38:08;100562;;;20.08;60.02
70198;BME280;57582;-34.876;138.628;2023-03-26T04:41:10;100566;;;20.20;60.88
70198;BME280;57582;-34.876;138.628;2023-03-26T04:44:07;100560;;;20.30;61.53
70198;BME280;57582;-34.876;138.628;2023-03-26T04:47:07;100560;;;20.30;61.29
70198;BME280;57582;-34.876;138.628;2023-03-26T04:50:08;100573;;;20.20;60.07
70198;BME280;57582;-34.876;138.628;2023-03-26T04:53:09;100572;;;20.09;60.59
70198;BME280;57582;-34.876;138.628;2023-03-26T04:56:11;100564;;;19.85;61.68
70198;BME280;57582;-34.876;138.628;2023-03-26T04:59:09;100563;;;19.89;62.03
70198;BME280;57582;-34.876;138.628;2023-03-26T05:02:09;100557;;;19.85;61.73
70198;BME280;57582;-34.876;138.628;2023-03-26T05:05:09;100561;;;19.65;62.06
70198;BME280;57582;-34.876;138.628;2023-03-26T05:08:08;100543;;;19.41;63.31
70198;BME280;57582;-34.876;138.628;2023-03-26T05:11:09;100507;;;19.02;64.37
70198;BME280;57582;-34.876;138.628;2023-03-26T05:14:08;100488;;;18.96;65.87
70198;BME280;57582;-34.876;138.628;2023-03-26T05:17:10;100476;;;18.80;64.41
70198;BME280;57582;-34.876;138.628;2023-03-26T05:20:13;100492;;;18.96;64.46
70198;BME280;57582;-34.876;138.628;2023-03-26T05:23:08;100503;;;19.17;64.39
70198;BME280;57582;-34.876;138.628;2023-03-26T05:26:08;100502;;;19.29;63.87
70198;BME280;57582;-34.876;138.628;2023-03-26T05:29:09;100497;;;19.41;62.48
70198;BME280;57582;-34.876;138.628;2023-03-26T05:32:08;100500;;;19.34;62.16
70198;BME280;57582;-34.876;138.628;2023-03-26T05:35:08;100502;;;19.44;62.27
70198;BME280;57582;-34.876;138.628;2023-03-26T05:38:08;100512;;;19.48;61.62
70198;BME280;57582;-34.876;138.628;2023-03-26T05:41:09;100515;;;19.37;60.10
70198;BME280;57582;-34.876;138.628;2023-03-26T05:44:08;100509;;;19.38;59.83
70198;BME280;57582;-34.876;138.628;2023-03-26T05:47:08;100507;;;19.27;60.63
70198;BME280;57582;-34.876;138.628;2023-03-26T05:50:08;100501;;;19.39;62.58
70198;BME280;57582;-34.876;138.628;2023-03-26T05:53:08;100512;;;19.53;62.83
70198;BME280;57582;-34.876;138.628;2023-03-26T05:56:08;100503;;;19.56;62.11
70198;BME280;57582;-34.876;138.628;2023-03-26T05:59:08;100501;;;19.48;62.11
70198;BME280;57582;-34.876;138.628;2023-03-26T06:02:08;100497;;;19.43;62.51
70198;BME280;57582;-34.876;138.628;2023-03-26T06:05:08;100493;;;19.40;62.64
70198;BME280;57582;-34.876;138.628;2023-03-26T06:08:08;100478;;;19.39;62.63
70198;BME280;57582;-34.876;138.628;2023-03-26T06:11:09;100472;;;19.31;61.05
70198;BME280;57582;-34.876;138.628;2023-03-26T06:14:08;100483;;;19.31;61.83
70198;BME280;57582;-34.876;138.628;2023-03-26T06:17:09;100486;;;19.47;61.63
70198;BME280;57582;-34.876;138.628;2023-03-26T06:20:08;100489;;;19.48;60.20
70198;BME280;57582;-34.876;138.628;2023-03-26T06:23:08;100490;;;19.64;61.11
70198;BME280;57582;-34.876;138.628;2023-03-26T06:26:08;100490;;;19.66;60.67
70198;BME280;57582;-34.876;138.628;2023-03-26T06:29:10;100484;;;19.83;60.98
70198;BME280;57582;-34.876;138.628;2023-03-26T06:32:08;100478;;;19.68;59.42
70198;BME280;57582;-34.876;138.628;2023-03-26T06:35:08;100481;;;19.62;60.94
70198;BME280;57582;-34.876;138.628;2023-03-26T06:38:08;100475;;;19.49;61.71
70198;BME280;57582;-34.876;138.628;2023-03-26T06:41:09;100456;;;19.21;62.07
70198;BME280;57582;-34.876;138.628;2023-03-26T06:44:08;100451;;;19.12;63.57
70198;BME280;57582;-34.876;138.628;2023-03-26T06:47:08;100446;;;18.75;63.76
70198;BME280;57582;-34.876;138.628;2023-03-26T06:50:08;100449;;;18.70;65.34
70198;BME280;57582;-34.876;138.628;2023-03-26T06:53:09;100437;;;18.66;65.20
70198;BME280;57582;-34.876;138.628;2023-03-26T06:56:08;100428;;;18.38;65.35
70198;BME280;57582;-34.876;138.628;2023-03-26T06:59:08;100436;;;18.39;67.06
70198;BME280;57582;-34.876;138.628;2023-03-26T07:02:09;100434;;;18.61;67.00
70198;BME280;57582;-34.876;138.628;2023-03-26T07:05:08;100435;;;18.75;67.33
70198;BME280;57582;-34.876;138.628;2023-03-26T07:08:08;100444;;;18.97;67.04
70198;BME280;57582;-34.876;138.628;2023-03-26T07:11:08;100439;;;19.14;67.84
70198;BME280;57582;-34.876;138.628;2023-03-26T07:14:08;100437;;;19.34;68.49
70198;BME280;57582;-34.876;138.628;2023-03-26T07:17:09;100421;;;19.49;68.30
70198;BME280;57582;-34.876;138.628;2023-03-26T07:20:08;100417;;;19.62;67.96
70198;BME280;57582;-34.876;138.628;2023-03-26T07:23:09;100408;;;19.48;66.55
70198;BME280;57582;-34.876;138.628;2023-03-26T07:29:12;100410;;;19.06;67.37
70198;BME280;57582;-34.876;138.628;2023-03-26T07:32:17;100413;;;19.12;67.87
70198;BME280;57582;-34.876;138.628;2023-03-26T07:38:12;100407;;;18.99;67.36
70198;BME280;57582;-34.876;138.628;2023-03-26T07:47:14;100403;;;19.17;65.59
70198;BME280;57582;-34.876;138.628;2023-03-26T07:50:10;100414;;;19.24;65.32
70198;BME280;57582;-34.876;138.628;2023-03-26T07:53:08;100417;;;19.37;65.62
70198;BME280;57582;-34.876;138.628;2023-03-26T07:56:15;100402;;;19.46;65.31
70198;BME280;57582;-34.876;138.628;2023-03-26T07:59:11;100398;;;19.60;65.53
70198;BME280;57582;-34.876;138.628;2023-03-26T08:08:13;100407;;;19.87;64.35
70198;BME280;57582;-34.876;138.628;2023-03-26T08:14:14;100404;;;19.97;64.15
70198;BME280;57582;-34.876;138.628;2023-03-26T08:17:20;100409;;;20.03;63.66
70198;BME280;57582;-34.876;138.628;2023-03-26T08:23:17;100425;;;20.08;62.32
70198;BME280;57582;-34.876;138.628;2023-03-26T08:32:09;100459;;;19.62;56.45
70198;BME280;57582;-34.876;138.628;2023-03-26T08:35:10;100462;;;19.45;56.31
70198;BME280;57582;-34.876;138.628;2023-03-26T08:38:08;100461;;;19.30;56.31
70198;BME280;57582;-34.876;138.628;2023-03-26T08:50:13;100484;;;18.80;58.53
70198;BME280;57582;-34.876;138.628;2023-03-26T09:26:13;100437;;;17.91;62.09
70198;BME280;57582;-34.876;138.628;2023-03-26T10:02:16;100421;;;18.31;57.18
70198;BME280;57582;-34.876;138.628;2023-03-26T10:05:13;100430;;;18.36;56.14
70198;BME280;57582;-34.876;138.628;2023-03-26T10:26:14;100410;;;18.79;52.66
70198;BME280;57582;-34.876;138.628;2023-03-26T10:38:12;100397;;;18.97;52.58
70198;BME280;57582;-34.876;138.628;2023-03-26T10:47:10;100379;;;19.04;52.28
70198;BME280;57582;-34.876;138.628;2023-03-26T10:59:10;100364;;;19.20;50.57
70198;BME280;57582;-34.876;138.628;2023-03-26T11:05:19;100355;;;19.13;50.22
70198;BME280;57582;-34.876;138.628;2023-03-26T11:08:09;100372;;;19.23;50.37
70198;BME280;57582;-34.876;138.628;2023-03-26T11:14:10;100383;;;19.28;51.65
70198;BME280;57582;-34.876;138.628;2023-03-26T11:20:12;100406;;;19.27;51.78
70198;BME280;57582;-34.876;138.628;2023-03-26T11:41:11;100427;;;18.74;54.31
70198;BME280;57582;-34.876;138.628;2023-03-26T11:44:25;100431;;;18.73;55.01
70198;BME280;57582;-34.876;138.628;2023-03-26T11:47:09;100423;;;18.65;56.22
70198;BME280;57582;-34.876;138.628;2023-03-26T11:50:09;100422;;;18.54;55.39
70198;BME280;57582;-34.876;138.628;2023-03-26T11:53:10;100422;;;18.53;55.68
70198;BME280;57582;-34.876;138.628;2023-03-26T11:56:20;100411;;;18.37;56.40
70198;BME280;57582;-34.876;138.628;2023-03-26T11:59:10;100420;;;18.38;57.09
70198;BME280;57582;-34.876;138.628;2023-03-26T12:11:09;100423;;;18.32;55.68
70198;BME280;57582;-34.876;138.628;2023-03-26T12:14:12;100413;;;18.32;56.58
70198;BME280;57582;-34.876;138.628;2023-03-26T12:17:11;100413;;;18.21;56.54
70198;BME280;57582;-34.876;138.628;2023-03-26T12:23:31;100387;;;18.20;57.45
70198;BME280;57582;-34.876;138.628;2023-03-26T12:26:17;100384;;;18.20;57.48
70198;BME280;57582;-34.876;138.628;2023-03-26T12:29:11;100388;;;18.24;56.86
70198;BME280;57582;-34.876;138.628;2023-03-26T12:32:12;100371;;;18.25;56.57
70198;BME280;57582;-34.876;138.628;2023-03-26T12:35:13;100363;;;18.35;56.16
70198;BME280;57582;-34.876;138.628;2023-03-26T12:38:15;100374;;;18.40;54.98
70198;BME280;57582;-34.876;138.628;2023-03-26T12:47:11;100375;;;18.65;54.83
70198;BME280;57582;-34.876;138.628;2023-03-26T12:50:11;100340;;;18.42;55.11
70198;BME280;57582;-34.876;138.628;2023-03-26T12:53:15;100374;;;18.61;55.31
70198;BME280;57582;-34.876;138.628;2023-03-26T13:26:11;100369;;;18.58;54.83
70198;BME280;57582;-34.876;138.628;2023-03-26T13:35:21;100328;;;18.70;53.92
70198;BME280;57582;-34.876;138.628;2023-03-26T13:44:14;100276;;;18.70;53.08
70198;BME280;57582;-34.876;138.628;2023-03-26T13:47:10;100265;;;18.80;53.01
70198;BME280;57582;-34.876;138.628;2023-03-26T13:50:26;100293;;;18.92;52.58
70198;BME280;57582;-34.876;138.628;2023-03-26T13:53:12;100273;;;18.94;52.63
70198;BME280;57582;-34.876;138.628;2023-03-26T13:56:09;100280;;;18.93;52.46
70198;BME280;57582;-34.876;138.628;2023-03-26T13:59:13;100282;;;19.00;51.75
70198;BME280;57582;-34.876;138.628;2023-03-26T14:02:28;100274;;;19.06;51.59
70198;BME280;57582;-34.876;138.628;2023-03-26T14:05:14;100279;;;19.15;51.29
70198;BME280;57582;-34.876;138.628;2023-03-26T14:08:12;100275;;;19.19;50.72
70198;BME280;57582;-34.876;138.628;2023-03-26T14:11:13;100257;;;19.24;50.66
70198;BME280;57582;-34.876;138.628;2023-03-26T14:14:09;100270;;;19.26;50.14
70198;BME280;57582;-34.876;138.628;2023-03-26T14:17:17;100265;;;19.31;50.02
70198;BME280;57582;-34.876;138.628;2023-03-26T14:29:22;100265;;;19.49;49.61
70198;BME280;57582;-34.876;138.628;2023-03-26T14:44:14;100233;;;19.66;47.72
70198;BME280;57582;-34.876;138.628;2023-03-26T14:47:17;100226;;;19.66;48.49
70198;BME280;57582;-34.876;138.628;2023-03-26T14:56:20;100225;;;19.96;48.54
70198;BME280;57582;-34.876;138.628;2023-03-26T15:08:14;100190;;;20.36;45.75
70198;BME280;57582;-34.876;138.628;2023-03-26T15:41:12;100158;;;21.91;44.67
70198;BME280;57582;-34.876;138.628;2023-03-26T15:44:18;100160;;;21.99;44.02
70198;BME280;57582;-34.876;138.628;2023-03-26T15:47:16;100162;;;22.08;44.35
70198;BME280;57582;-34.876;138.628;2023-03-26T16:11:09;100163;;;22.48;44.90
70198;BME280;57582;-34.876;138.628;2023-03-26T16:14:10;100153;;;22.48;44.95
70198;BME280;57582;-34.876;138.628;2023-03-26T16:17:17;100156;;;22.36;45.20
70198;BME280;57582;-34.876;138.628;2023-03-26T16:20:28;100152;;;22.21;45.78
70198;BME280;57582;-34.876;138.628;2023-03-26T16:23:18;100144;;;22.08;47.05
70198;BME280;57582;-34.876;138.628;2023-03-26T16:26:11;100151;;;22.03;47.63
70198;BME280;57582;-34.876;138.628;2023-03-26T16:38:10;100168;;;21.91;49.21
70198;BME280;57582;-34.876;138.628;2023-03-26T16:41:14;100167;;;21.84;49.46
70198;BME280;57582;-34.876;138.628;2023-03-26T16:47:18;100175;;;21.75;49.08
70198;BME280;57582;-34.876;138.628;2023-03-26T17:02:15;100215;;;20.81;58.66
70198;BME280;57582;-34.876;138.628;2023-03-26T17:14:14;100219;;;20.15;63.58
70198;BME280;57582;-34.876;138.628;2023-03-26T17:20:28;100217;;;20.33;63.82
70198;BME280;57582;-34.876;138.628;2023-03-26T17:32:09;100215;;;20.56;64.21
70198;BME280;57582;-34.876;138.628;2023-03-26T17:35:09;100224;;;20.52;64.43
70198;BME280;57582;-34.876;138.628;2023-03-26T17:38:52;100208;;;20.52;64.13
70198;BME280;57582;-34.876;138.628;2023-03-26T17:41:10;100220;;;20.56;64.04
70198;BME280;57582;-34.876;138.628;2023-03-26T17:47:15;100214;;;20.66;64.80
70198;BME280;57582;-34.876;138.628;2023-03-26T17:50:13;100215;;;20.66;65.19
70198;BME280;57582;-34.876;138.628;2023-03-26T17:56:13;100220;;;20.64;65.54
70198;BME280;57582;-34.876;138.628;2023-03-26T17:59:10;100205;;;20.65;65.54
70198;BME280;57582;-34.876;138.628;2023-03-26T18:02:11;100207;;;20.63;65.93
70198;BME280;57582;-34.876;138.628;2023-03-26T18:05:11;100212;;;20.64;66.05
70198;BME280;57582;-34.876;138.628;2023-03-26T18:17:10;100182;;;20.46;67.36
70198;BME280;57582;-34.876;138.628;2023-03-26T18:20:17;100205;;;20.50;67.16
70198;BME280;57582;-34.876;138.628;2023-03-26T18:23:10;100201;;;20.51;67.29
70198;BME280;57582;-34.876;138.628;2023-03-26T18:29:25;100197;;;20.57;67.08
70198;BME280;57582;-34.876;138.628;2023-03-26T18:35:12;100190;;;20.64;67.63
70198;BME280;57582;-34.876;138.628;2023-03-26T18:38:11;100190;;;20.68;67.72
70198;BME280;57582;-34.876;138.628;2023-03-26T18:41:14;100193;;;20.68;67.65
70198;BME280;57582;-34.876;138.628;2023-03-26T18:44:13;100191;;;20.68;67.54
70198;BME280;57582;-34.876;138.628;2023-03-26T18:47:09;100188;;;20.66;67.60
70198;BME280;57582;-34.876;138.628;2023-03-26T18:50:13;100185;;;20.51;67.84
70198;BME280;57582;-34.876;138.628;2023-03-26T18:53:18;100196;;;20.35;68.34
70198;BME280;57582;-34.876;138.628;2023-03-26T18:56:17;100202;;;20.37;68.40
70198;BME280;57582;-34.876;138.628;2023-03-26T19:02:10;100222;;;20.17;69.35
70198;BME280;57582;-34.876;138.628;2023-03-26T19:05:12;100220;;;20.21;69.47
70198;BME280;57582;-34.876;138.628;2023-03-26T19:08:09;100223;;;20.24;69.79
70198;BME280;57582;-34.876;138.628;2023-03-26T19:11:09;100227;;;20.22;69.72
70198;BME280;57582;-34.876;138.628;2023-03-26T19:14:13;100239;;;20.24;69.78
70198;BME280;57582;-34.876;138.628;2023-03-26T19:17:09;100238;;;20.23;70.03
70198;BME280;57582;-34.876;138.628;2023-03-26T19:20:12;100234;;;20.21;70.04
70198;BME280;57582;-34.876;138.628;2023-03-26T19:23:13;100227;;;20.23;70.04
70198;BME280;57582;-34.876;138.628;2023-03-26T19:26:09;100236;;;20.31;70.08
70198;BME280;57582;-34.876;138.628;2023-03-26T19:29:12;100231;;;20.26;69.99
70198;BME280;57582;-34.876;138.628;2023-03-26T19:32:19;100229;;;20.03;71.34
70198;BME280;57582;-34.876;138.628;2023-03-26T19:35:17;100228;;;19.91;71.69
70198;BME280;57582;-34.876;138.628;2023-03-26T19:38:25;100224;;;19.76;72.45
70198;BME280;57582;-34.876;138.628;2023-03-26T19:41:17;100220;;;19.71;72.61
70198;BME280;57582;-34.876;138.628;2023-03-26T19:47:18;100223;;;20.05;72.08
70198;BME280;57582;-34.876;138.628;2023-03-26T19:50:26;100224;;;20.12;71.40
70198;BME280;57582;-34.876;138.628;2023-03-26T19:56:10;100228;;;19.86;72.13
70198;BME280;57582;-34.876;138.628;2023-03-26T19:59:09;100222;;;19.97;72.34
70198;BME280;57582;-34.876;138.628;2023-03-26T20:02:11;100239;;;20.14;71.77
70198;BME280;57582;-34.876;138.628;2023-03-26T20:05:18;100237;;;20.30;71.17
70198;BME280;57582;-34.876;138.628;2023-03-26T20:08:12;100234;;;20.45;70.56
70198;BME280;57582;-34.876;138.628;2023-03-26T20:11:26;100240;;;20.55;70.33
70198;BME280;57582;-34.876;138.628;2023-03-26T20:14:12;100248;;;20.61;69.96
70198;BME280;57582;-34.876;138.628;2023-03-26T20:17:11;100251;;;20.72;69.83
70198;BME280;57582;-34.876;138.628;2023-03-26T20:20:09;100249;;;20.83;69.21
70198;BME280;57582;-34.876;138.628;2023-03-26T20:23:10;100261;;;21.01;68.72
70198;BME280;57582;-34.876;138.628;2023-03-26T20:26:10;100258;;;21.09;68.50
70198;BME280;57582;-34.876;138.628;2023-03-26T20:29:09;100266;;;21.19;68.28
70198;BME280;57582;-34.876;138.628;2023-03-26T20:32:16;100271;;;21.29;68.24
70198;BME280;57582;-34.876;138.628;2023-03-26T20:35:13;100271;;;21.32;68.21
70198;BME280;57582;-34.876;138.628;2023-03-26T20:38:09;100265;;;21.43;67.76
70198;BME280;57582;-34.876;138.628;2023-03-26T20:41:12;100276;;;21.49;67.35
70198;BME280;57582;-34.876;138.628;2023-03-26T20:44:10;100272;;;21.50;67.45
70198;BME280;57582;-34.876;138.628;2023-03-26T20:47:09;100280;;;21.42;68.15
70198;BME280;57582;-34.876;138.628;2023-03-26T20:50:11;100281;;;21.43;68.15
70198;BME280;57582;-34.876;138.628;2023-03-26T20:53:12;100282;;;21.43;68.28
70198;BME280;57582;-34.876;138.628;2023-03-26T20:56:10;100303;;;21.46;68.34
70198;BME280;57582;-34.876;138.628;2023-03-26T20:59:09;100307;;;21.45;68.29
70198;BME280;57582;-34.876;138.628;2023-03-26T21:02:09;100315;;;21.54;68.00
70198;BME280;57582;-34.876;138.628;2023-03-26T21:05:10;100329;;;21.57;67.70
70198;BME280;57582;-34.876;138.628;2023-03-26T21:08:16;100333;;;21.48;68.20
70198;BME280;57582;-34.876;138.628;2023-03-26T21:11:27;100347;;;21.46;68.21
70198;BME280;57582;-34.876;138.628;2023-03-26T21:14:14;100340;;;21.40;68.52
70198;BME280;57582;-34.876;138.628;2023-03-26T21:17:18;100330;;;21.34;68.85
70198;BME280;57582;-34.876;138.628;2023-03-26T21:20:09;100333;;;21.28;69.30
70198;BME280;57582;-34.876;138.628;2023-03-26T21:23:12;100336;;;21.20;69.68
70198;BME280;57582;-34.876;138.628;2023-03-26T21:26:10;100343;;;20.84;72.42
70198;BME280;57582;-34.876;138.628;2023-03-26T21:29:10;100347;;;20.73;73.90
70198;BME280;57582;-34.876;138.628;2023-03-26T21:32:09;100341;;;20.79;74.10
70198;BME280;57582;-34.876;138.628;2023-03-26T21:35:10;100352;;;20.76;74.33
70198;BME280;57582;-34.876;138.628;2023-03-26T21:38:09;100354;;;20.74;74.75
70198;BME280;57582;-34.876;138.628;2023-03-26T21:41:30;100365;;;20.74;74.89
70198;BME280;57582;-34.876;138.628;2023-03-26T21:44:09;100367;;;20.55;76.23
70198;BME280;57582;-34.876;138.628;2023-03-26T21:47:09;100376;;;20.48;76.53
70198;BME280;57582;-34.876;138.628;2023-03-26T21:50:11;100373;;;20.52;76.69
70198;BME280;57582;-34.876;138.628;2023-03-26T21:53:10;100358;;;20.60;76.62
70198;BME280;57582;-34.876;138.628;2023-03-26T21:56:20;100360;;;20.68;76.46
70198;BME280;57582;-34.876;138.628;2023-03-26T22:05:18;100379;;;21.03;75.32
70198;BME280;57582;-34.876;138.628;2023-03-26T22:08:28;100369;;;21.10;74.96
70198;BME280;57582;-34.876;138.628;2023-03-26T22:11:09;100389;;;21.12;74.84
70198;BME280;57582;-34.876;138.628;2023-03-26T22:14:09;100386;;;21.10;74.75
70198;BME280;57582;-34.876;138.628;2023-03-26T22:17:10;100400;;;20.96;75.15
70198;BME280;57582;-34.876;138.628;2023-03-26T22:20:11;100408;;;20.94;75.42
70198;BME280;57582;-34.876;138.628;2023-03-26T22:23:09;100414;;;20.84;76.16
70198;BME280;57582;-34.876;138.628;2023-03-26T22:26:09;100430;;;20.84;76.15
70198;BME280;57582;-34.876;138.628;2023-03-26T22:29:10;100439;;;20.69;77.26
70198;BME280;57582;-34.876;138.628;2023-03-26T22:32:09;100396;;;20.47;78.41